sensor_id;sensor_type;location;lat;lon;timestamp;P1;durP1;ratioP1;P2;durP2;ratioP2
81124;SDS011;72192;52.114;5.424;2024-02-26T00:01:31;6.72;;;3.60;;
81124;SDS011;72192;52.114;5.424;2024-02-26T00:04:01;6.25;;;3.70;;
81124;SDS011;72192;52.114;5.424;2024-02-26T00:06:30;6.40;;;3.60;;
81124;SDS011;72192;52.114;5.424;2024-02-26T00:08:57;5.13;;;3.10;;
81124;SDS011;72192;52.114;5.424;2024-02-26T00:11:27;5.60;;;3.78;;
81124;SDS011;72192;52.114;5.424;2024-02-26T00:14:01;6.60;;;3.70;;
81124;SDS011;72192;52.114;5.424;2024-02-26T00:16:30;6.25;;;3.70;;
81124;SDS011;72192;52.114;5.424;2024-02-26T00:18:59;7.55;;;3.60;;
81124;SDS011;72192;52.114;5.424;2024-02-26T00:21:27;6.10;;;3.55;;
81124;SDS011;72192;52.114;5.424;2024-02-26T00:23:55;6.65;;;3.95;;
81124;SDS011;72192;52.114;5.424;2024-02-26T00:26:26;7.40;;;4.05;;
81124;SDS011;72192;52.114;5.424;2024-02-26T00:28:53;7.60;;;3.75;;
81124;SDS011;72192;52.114;5.424;2024-02-26T00:31:20;9.05;;;4.60;;
81124;SDS011;72192;52.114;5.424;2024-02-26T00:33:47;8.52;;;4.22;;
81124;SDS011;72192;52.114;5.424;2024-02-26T00:36:17;8.02;;;4.07;;
81124;SDS011;72192;52.114;5.424;2024-02-26T00:38:45;7.57;;;4.35;;
81124;SDS011;72192;52.114;5.424;2024-02-26T00:41:17;7.22;;;4.03;;
81124;SDS011;72192;52.114;5.424;2024-02-26T00:43:45;8.85;;;4.40;;
81124;SDS011;72192;52.114;5.424;2024-02-26T00:46:14;7.07;;;3.78;;
81124;SDS011;72192;52.114;5.424;2024-02-26T00:48:42;6.53;;;3.78;;
81124;SDS011;72192;52.114;5.424;2024-02-26T00:51:12;7.22;;;3.78;;
81124;SDS011;72192;52.114;5.424;2024-02-26T00:53:40;7.40;;;3.88;;
81124;SDS011;72192;52.114;5.424;2024-02-26T00:56:10;7.28;;;4.10;;
81124;SDS011;72192;52.114;5.424;2024-02-26T00:58:37;7.95;;;3.95;;
81124;SDS011;72192;52.114;5.424;2024-02-26T01:01:04;7.10;;;3.88;;
81124;SDS011;72192;52.114;5.424;2024-02-26T01:03:31;6.95;;;3.88;;
81124;SDS011;72192;52.114;5.424;2024-02-26T01:05:58;5.65;;;3.63;;
81124;SDS011;72192;52.114;5.424;2024-02-26T01:08:28;7.93;;;4.63;;
81124;SDS011;72192;52.114;5.424;2024-02-26T01:10:55;6.07;;;4.00;;
81124;SDS011;72192;52.114;5.424;2024-02-26T01:13:22;6.85;;;4.13;;
81124;SDS011;72192;52.114;5.424;2024-02-26T01:18:20;6.60;;;3.40;;
81124;SDS011;72192;52.114;5.424;2024-02-26T01:20:47;6.53;;;4.07;;
81124;SDS011;72192;52.114;5.424;2024-02-26T01:23:14;6.80;;;3.78;;
81124;SDS011;72192;52.114;5.424;2024-02-26T01:25:41;8.68;;;4.70;;
81124;SDS011;72192;52.114;5.424;2024-02-26T01:28:09;7.07;;;3.85;;
81124;SDS011;72192;52.114;5.424;2024-02-26T01:30:36;8.15;;;4.18;;
81124;SDS011;72192;52.114;5.424;2024-02-26T01:33:06;6.93;;;4.03;;
81124;SDS011;72192;52.114;5.424;2024-02-26T01:38:00;7.45;;;4.50;;
81124;SDS011;72192;52.114;5.424;2024-02-26T01:40:27;7.55;;;4.20;;
81124;SDS011;72192;52.114;5.424;2024-02-26T01:42:55;8.27;;;4.20;;
81124;SDS011;72192;52.114;5.424;2024-02-26T01:45:22;7.97;;;4.28;;
81124;SDS011;72192;52.114;5.424;2024-02-26T01:47:51;6.50;;;4.20;;
81124;SDS011;72192;52.114;5.424;2024-02-26T01:50:20;8.60;;;4.80;;
81124;SDS011;72192;52.114;5.424;2024-02-26T01:52:50;8.45;;;4.93;;
81124;SDS011;72192;52.114;5.424;2024-02-26T01:55:19;7.95;;;4.40;;
81124;SDS011;72192;52.114;5.424;2024-02-26T01:57:50;10.77;;;4.03;;
81124;SDS011;72192;52.114;5.424;2024-02-26T02:00:20;8.05;;;4.15;;
81124;SDS011;72192;52.114;5.424;2024-02-26T02:02:51;6.47;;;4.28;;
81124;SDS011;72192;52.114;5.424;2024-02-26T02:05:19;10.82;;;4.80;;
81124;SDS011;72192;52.114;5.424;2024-02-26T02:07:47;10.13;;;5.28;;
81124;SDS011;72192;52.114;5.424;2024-02-26T02:10:16;7.85;;;4.30;;
81124;SDS011;72192;52.114;5.424;2024-02-26T02:12:49;7.40;;;3.92;;
81124;SDS011;72192;52.114;5.424;2024-02-26T02:15:17;7.28;;;4.10;;
81124;SDS011;72192;52.114;5.424;2024-02-26T02:17:46;8.43;;;4.13;;
81124;SDS011;72192;52.114;5.424;2024-02-26T02:20:16;7.13;;;3.85;;
81124;SDS011;72192;52.114;5.424;2024-02-26T02:22:45;8.90;;;4.95;;
81124;SDS011;72192;52.114;5.424;2024-02-26T02:25:12;8.75;;;4.82;;
81124;SDS011;72192;52.114;5.424;2024-02-26T02:27:40;9.02;;;4.60;;
81124;SDS011;72192;52.114;5.424;2024-02-26T02:30:09;9.70;;;4.70;;
81124;SDS011;72192;52.114;5.424;2024-02-26T02:32:40;6.85;;;4.18;;
81124;SDS011;72192;52.114;5.424;2024-02-26T02:35:08;10.10;;;4.85;;
81124;SDS011;72192;52.114;5.424;2024-02-26T02:37:36;9.32;;;4.88;;
81124;SDS011;72192;52.114;5.424;2024-02-26T02:40:05;7.53;;;4.20;;
81124;SDS011;72192;52.114;5.424;2024-02-26T02:42:32;7.15;;;4.13;;
81124;SDS011;72192;52.114;5.424;2024-02-26T02:44:59;9.88;;;4.15;;
81124;SDS011;72192;52.114;5.424;2024-02-26T02:47:26;7.35;;;4.38;;
81124;SDS011;72192;52.114;5.424;2024-02-26T02:50:01;9.05;;;4.28;;
81124;SDS011;72192;52.114;5.424;2024-02-26T02:52:28;9.15;;;4.68;;
81124;SDS011;72192;52.114;5.424;2024-02-26T02:54:55;7.40;;;3.85;;
81124;SDS011;72192;52.114;5.424;2024-02-26T02:57:22;8.25;;;4.30;;
81124;SDS011;72192;52.114;5.424;2024-02-26T02:59:49;6.85;;;4.30;;
81124;SDS011;72192;52.114;5.424;2024-02-26T03:02:20;9.02;;;4.97;;
81124;SDS011;72192;52.114;5.424;2024-02-26T03:04:47;7.50;;;4.65;;
81124;SDS011;72192;52.114;5.424;2024-02-26T03:07:14;8.75;;;4.93;;
81124;SDS011;72192;52.114;5.424;2024-02-26T03:09:41;8.20;;;4.50;;
81124;SDS011;72192;52.114;5.424;2024-02-26T03:12:08;8.98;;;4.78;;
81124;SDS011;72192;52.114;5.424;2024-02-26T03:14:36;7.45;;;4.40;;
81124;SDS011;72192;52.114;5.424;2024-02-26T03:17:04;8.45;;;4.38;;
81124;SDS011;72192;52.114;5.424;2024-02-26T03:19:31;8.10;;;5.03;;
81124;SDS011;72192;52.114;5.424;2024-02-26T03:21:58;9.48;;;5.07;;
81124;SDS011;72192;52.114;5.424;2024-02-26T03:24:26;8.32;;;4.45;;
81124;SDS011;72192;52.114;5.424;2024-02-26T03:26:55;8.68;;;5.10;;
81124;SDS011;72192;52.114;5.424;2024-02-26T03:29:22;9.38;;;5.18;;
81124;SDS011;72192;52.114;5.424;2024-02-26T03:31:50;10.27;;;5.18;;
81124;SDS011;72192;52.114;5.424;2024-02-26T03:34:17;9.35;;;5.00;;
81124;SDS011;72192;52.114;5.424;2024-02-26T03:36:46;10.23;;;5.40;;
81124;SDS011;72192;52.114;5.424;2024-02-26T03:39:13;8.50;;;4.80;;
81124;SDS011;72192;52.114;5.424;2024-02-26T03:41:40;9.30;;;4.32;;
81124;SDS011;72192;52.114;5.424;2024-02-26T03:44:08;8.38;;;4.30;;
81124;SDS011;72192;52.114;5.424;2024-02-26T03:46:35;9.98;;;6.07;;
81124;SDS011;72192;52.114;5.424;2024-02-26T03:49:02;10.23;;;4.82;;
81124;SDS011;72192;52.114;5.424;2024-02-26T03:51:29;9.27;;;5.00;;
81124;SDS011;72192;52.114;5.424;2024-02-26T03:53:58;9.10;;;5.20;;
81124;SDS011;72192;52.114;5.424;2024-02-26T03:56:26;10.70;;;5.00;;
81124;SDS011;72192;52.114;5.424;2024-02-26T03:58:54;10.10;;;5.22;;
81124;SDS011;72192;52.114;5.424;2024-02-26T04:01:21;9.85;;;4.82;;
81124;SDS011;72192;52.114;5.424;2024-02-26T04:03:48;11.82;;;5.53;;
81124;SDS011;72192;52.114;5.424;2024-02-26T04:06:15;10.35;;;5.63;;
81124;SDS011;72192;52.114;5.424;2024-02-26T04:08:44;10.50;;;5.03;;
81124;SDS011;72192;52.114;5.424;2024-02-26T04:11:11;9.93;;;4.93;;
81124;SDS011;72192;52.114;5.424;2024-02-26T04:13:39;9.32;;;5.20;;
81124;SDS011;72192;52.114;5.424;2024-02-26T04:16:06;11.45;;;5.95;;
81124;SDS011;72192;52.114;5.424;2024-02-26T04:18:33;11.65;;;5.93;;
81124;SDS011;72192;52.114;5.424;2024-02-26T04:21:00;12.23;;;5.50;;
81124;SDS011;72192;52.114;5.424;2024-02-26T04:23:27;9.50;;;5.57;;
81124;SDS011;72192;52.114;5.424;2024-02-26T04:25:58;10.30;;;5.60;;
81124;SDS011;72192;52.114;5.424;2024-02-26T04:28:25;9.05;;;4.85;;
81124;SDS011;72192;52.114;5.424;2024-02-26T04:30:52;11.60;;;5.18;;
81124;SDS011;72192;52.114;5.424;2024-02-26T04:33:19;10.55;;;5.47;;
81124;SDS011;72192;52.114;5.424;2024-02-26T04:35:47;9.70;;;5.22;;
81124;SDS011;72192;52.114;5.424;2024-02-26T04:38:16;8.98;;;5.07;;
81124;SDS011;72192;52.114;5.424;2024-02-26T04:40:43;8.90;;;5.15;;
81124;SDS011;72192;52.114;5.424;2024-02-26T04:43:10;9.95;;;5.13;;
81124;SDS011;72192;52.114;5.424;2024-02-26T04:45:37;12.05;;;5.20;;
81124;SDS011;72192;52.114;5.424;2024-02-26T04:48:04;9.60;;;4.60;;
81124;SDS011;72192;52.114;5.424;2024-02-26T04:50:33;10.45;;;5.22;;
81124;SDS011;72192;52.114;5.424;2024-02-26T04:53:00;8.85;;;5.03;;
81124;SDS011;72192;52.114;5.424;2024-02-26T04:55:27;9.15;;;4.53;;
81124;SDS011;72192;52.114;5.424;2024-02-26T04:57:54;9.70;;;5.00;;
81124;SDS011;72192;52.114;5.424;2024-02-26T05:00:21;8.15;;;4.63;;
81124;SDS011;72192;52.114;5.424;2024-02-26T05:02:54;8.25;;;4.63;;
81124;SDS011;72192;52.114;5.424;2024-02-26T05:05:21;9.13;;;5.03;;
81124;SDS011;72192;52.114;5.424;2024-02-26T05:07:48;10.30;;;5.25;;
81124;SDS011;72192;52.114;5.424;2024-02-26T05:10:21;8.63;;;4.68;;
81124;SDS011;72192;52.114;5.424;2024-02-26T05:12:48;9.98;;;4.90;;
81124;SDS011;72192;52.114;5.424;2024-02-26T05:15:15;9.63;;;5.15;;
81124;SDS011;72192;52.114;5.424;2024-02-26T05:17:46;9.23;;;5.28;;
81124;SDS011;72192;52.114;5.424;2024-02-26T05:20:13;9.32;;;4.80;;
81124;SDS011;72192;52.114;5.424;2024-02-26T05:22:40;10.10;;;4.80;;
81124;SDS011;72192;52.114;5.424;2024-02-26T05:25:08;9.05;;;4.53;;
81124;SDS011;72192;52.114;5.424;2024-02-26T05:27:36;10.77;;;5.90;;
81124;SDS011;72192;52.114;5.424;2024-02-26T05:30:06;8.82;;;5.07;;
81124;SDS011;72192;52.114;5.424;2024-02-26T05:32:34;10.50;;;5.38;;
81124;SDS011;72192;52.114;5.424;2024-02-26T05:35:01;10.85;;;5.47;;
81124;SDS011;72192;52.114;5.424;2024-02-26T05:37:32;9.43;;;5.30;;
81124;SDS011;72192;52.114;5.424;2024-02-26T05:39:59;8.25;;;4.90;;
81124;SDS011;72192;52.114;5.424;2024-02-26T05:42:26;11.15;;;5.45;;
81124;SDS011;72192;52.114;5.424;2024-02-26T05:44:53;12.35;;;5.75;;
81124;SDS011;72192;52.114;5.424;2024-02-26T05:47:20;12.55;;;6.35;;
81124;SDS011;72192;52.114;5.424;2024-02-26T05:49:47;11.15;;;6.22;;
81124;SDS011;72192;52.114;5.424;2024-02-26T05:52:17;10.98;;;5.57;;
81124;SDS011;72192;52.114;5.424;2024-02-26T05:54:44;9.90;;;5.03;;
81124;SDS011;72192;52.114;5.424;2024-02-26T05:57:11;10.88;;;5.47;;
81124;SDS011;72192;52.114;5.424;2024-02-26T05:59:43;11.40;;;5.47;;
81124;SDS011;72192;52.114;5.424;2024-02-26T06:02:27;9.88;;;5.40;;
81124;SDS011;72192;52.114;5.424;2024-02-26T06:04:53;13.23;;;5.68;;
81124;SDS011;72192;52.114;5.424;2024-02-26T06:07:21;11.38;;;5.60;;
81124;SDS011;72192;52.114;5.424;2024-02-26T06:09:49;11.77;;;5.85;;
81124;SDS011;72192;52.114;5.424;2024-02-26T06:12:16;11.45;;;5.82;;
81124;SDS011;72192;52.114;5.424;2024-02-26T06:14:43;15.85;;;5.90;;
81124;SDS011;72192;52.114;5.424;2024-02-26T06:17:10;11.35;;;5.78;;
81124;SDS011;72192;52.114;5.424;2024-02-26T06:19:41;12.00;;;6.55;;
81124;SDS011;72192;52.114;5.424;2024-02-26T06:22:08;11.95;;;4.82;;
81124;SDS011;72192;52.114;5.424;2024-02-26T06:24:35;12.25;;;5.47;;
81124;SDS011;72192;52.114;5.424;2024-02-26T06:27:03;13.50;;;6.47;;
81124;SDS011;72192;52.114;5.424;2024-02-26T06:29:30;9.93;;;5.45;;
81124;SDS011;72192;52.114;5.424;2024-02-26T06:31:57;10.65;;;5.63;;
81124;SDS011;72192;52.114;5.424;2024-02-26T06:34:24;12.48;;;6.00;;
81124;SDS011;72192;52.114;5.424;2024-02-26T06:36:51;13.68;;;6.28;;
81124;SDS011;72192;52.114;5.424;2024-02-26T06:39:18;13.20;;;6.15;;
81124;SDS011;72192;52.114;5.424;2024-02-26T06:41:46;15.77;;;6.88;;
81124;SDS011;72192;52.114;5.424;2024-02-26T06:44:13;14.63;;;6.13;;
81124;SDS011;72192;52.114;5.424;2024-02-26T06:46:40;10.55;;;5.70;;
81124;SDS011;72192;52.114;5.424;2024-02-26T06:49:07;13.88;;;6.82;;
81124;SDS011;72192;52.114;5.424;2024-02-26T06:51:42;14.93;;;6.68;;
81124;SDS011;72192;52.114;5.424;2024-02-26T06:54:10;14.65;;;6.85;;
81124;SDS011;72192;52.114;5.424;2024-02-26T06:56:37;11.93;;;6.30;;
81124;SDS011;72192;52.114;5.424;2024-02-26T06:59:04;14.10;;;6.10;;
81124;SDS011;72192;52.114;5.424;2024-02-26T07:01:31;14.40;;;6.18;;
81124;SDS011;72192;52.114;5.424;2024-02-26T07:03:58;16.98;;;6.85;;
81124;SDS011;72192;52.114;5.424;2024-02-26T07:06:29;16.73;;;7.10;;
81124;SDS011;72192;52.114;5.424;2024-02-26T07:11:25;17.30;;;7.45;;
81124;SDS011;72192;52.114;5.424;2024-02-26T07:13:52;14.88;;;7.00;;
81124;SDS011;72192;52.114;5.424;2024-02-26T07:16:19;15.63;;;6.88;;
81124;SDS011;72192;52.114;5.424;2024-02-26T07:18:46;20.38;;;7.88;;
81124;SDS011;72192;52.114;5.424;2024-02-26T07:21:13;16.58;;;7.78;;
81124;SDS011;72192;52.114;5.424;2024-02-26T07:23:40;15.50;;;7.15;;
81124;SDS011;72192;52.114;5.424;2024-02-26T07:26:08;16.65;;;7.28;;
81124;SDS011;72192;52.114;5.424;2024-02-26T07:28:35;19.48;;;7.45;;
81124;SDS011;72192;52.114;5.424;2024-02-26T07:31:03;19.40;;;8.43;;
81124;SDS011;72192;52.114;5.424;2024-02-26T07:33:30;18.00;;;7.45;;
81124;SDS011;72192;52.114;5.424;2024-02-26T07:35:57;19.00;;;8.52;;
81124;SDS011;72192;52.114;5.424;2024-02-26T07:38:24;17.25;;;8.10;;
81124;SDS011;72192;52.114;5.424;2024-02-26T07:41:07;17.55;;;7.53;;
81124;SDS011;72192;52.114;5.424;2024-02-26T07:43:35;19.40;;;8.18;;
81124;SDS011;72192;52.114;5.424;2024-02-26T07:46:02;15.88;;;7.25;;
81124;SDS011;72192;52.114;5.424;2024-02-26T07:48:29;19.40;;;7.90;;
81124;SDS011;72192;52.114;5.424;2024-02-26T07:50:57;20.02;;;9.32;;
81124;SDS011;72192;52.114;5.424;2024-02-26T07:53:39;20.98;;;10.75;;
81124;SDS011;72192;52.114;5.424;2024-02-26T07:56:07;20.20;;;9.15;;
81124;SDS011;72192;52.114;5.424;2024-02-26T07:58:34;18.73;;;9.00;;
81124;SDS011;72192;52.114;5.424;2024-02-26T08:01:01;21.38;;;9.27;;
81124;SDS011;72192;52.114;5.424;2024-02-26T08:03:28;22.30;;;8.45;;
81124;SDS011;72192;52.114;5.424;2024-02-26T08:06:02;19.60;;;9.02;;
81124;SDS011;72192;52.114;5.424;2024-02-26T08:08:45;17.40;;;8.23;;
81124;SDS011;72192;52.114;5.424;2024-02-26T08:11:19;20.73;;;10.57;;
81124;SDS011;72192;52.114;5.424;2024-02-26T08:13:46;19.95;;;8.88;;
81124;SDS011;72192;52.114;5.424;2024-02-26T08:16:13;19.65;;;9.68;;
81124;SDS011;72192;52.114;5.424;2024-02-26T08:18:47;18.35;;;9.30;;
81124;SDS011;72192;52.114;5.424;2024-02-26T08:21:14;20.73;;;9.35;;
81124;SDS011;72192;52.114;5.424;2024-02-26T08:23:43;17.17;;;8.25;;
81124;SDS011;72192;52.114;5.424;2024-02-26T08:28:50;14.18;;;7.07;;
81124;SDS011;72192;52.114;5.424;2024-02-26T08:31:21;18.13;;;8.40;;
81124;SDS011;72192;52.114;5.424;2024-02-26T08:33:51;16.50;;;7.55;;
81124;SDS011;72192;52.114;5.424;2024-02-26T08:36:18;14.57;;;7.47;;
81124;SDS011;72192;52.114;5.424;2024-02-26T08:38:45;13.52;;;6.93;;
81124;SDS011;72192;52.114;5.424;2024-02-26T08:41:14;14.15;;;7.05;;
81124;SDS011;72192;52.114;5.424;2024-02-26T08:43:41;13.25;;;6.53;;
81124;SDS011;72192;52.114;5.424;2024-02-26T08:46:09;13.23;;;6.28;;
81124;SDS011;72192;52.114;5.424;2024-02-26T08:48:39;14.13;;;6.30;;
81124;SDS011;72192;52.114;5.424;2024-02-26T08:51:07;11.77;;;6.28;;
81124;SDS011;72192;52.114;5.424;2024-02-26T08:53:35;11.90;;;6.07;;
81124;SDS011;72192;52.114;5.424;2024-02-26T08:56:09;12.45;;;6.53;;
81124;SDS011;72192;52.114;5.424;2024-02-26T08:58:44;12.48;;;6.43;;
81124;SDS011;72192;52.114;5.424;2024-02-26T09:07:05;9.97;;;5.03;;
81124;SDS011;72192;52.114;5.424;2024-02-26T09:09:36;11.05;;;5.20;;
81124;SDS011;72192;52.114;5.424;2024-02-26T09:17:08;10.33;;;5.43;;
81124;SDS011;72192;52.114;5.424;2024-02-26T09:19:38;9.80;;;4.73;;
81124;SDS011;72192;52.114;5.424;2024-02-26T09:24:38;11.65;;;5.35;;
81124;SDS011;72192;52.114;5.424;2024-02-26T09:27:07;10.38;;;5.28;;
81124;SDS011;72192;52.114;5.424;2024-02-26T09:29:38;10.90;;;4.80;;
81124;SDS011;72192;52.114;5.424;2024-02-26T09:32:06;9.90;;;4.90;;
81124;SDS011;72192;52.114;5.424;2024-02-26T09:37:10;8.45;;;4.43;;
81124;SDS011;72192;52.114;5.424;2024-02-26T09:39:47;9.68;;;4.50;;
81124;SDS011;72192;52.114;5.424;2024-02-26T09:44:45;9.57;;;4.47;;
81124;SDS011;72192;52.114;5.424;2024-02-26T09:49:55;10.77;;;5.00;;
81124;SDS011;72192;52.114;5.424;2024-02-26T09:52:24;11.63;;;5.43;;
81124;SDS011;72192;52.114;5.424;2024-02-26T09:57:25;9.27;;;4.47;;
81124;SDS011;72192;52.114;5.424;2024-02-26T09:59:53;10.65;;;4.72;;
81124;SDS011;72192;52.114;5.424;2024-02-26T10:02:26;9.32;;;4.60;;
81124;SDS011;72192;52.114;5.424;2024-02-26T10:07:25;9.00;;;4.30;;
81124;SDS011;72192;52.114;5.424;2024-02-26T10:09:52;8.85;;;4.38;;
81124;SDS011;72192;52.114;5.424;2024-02-26T10:12:19;7.40;;;4.30;;
81124;SDS011;72192;52.114;5.424;2024-02-26T10:14:46;8.02;;;4.57;;
81124;SDS011;72192;52.114;5.424;2024-02-26T10:17:15;11.35;;;4.43;;
81124;SDS011;72192;52.114;5.424;2024-02-26T10:19:42;9.73;;;4.53;;
81124;SDS011;72192;52.114;5.424;2024-02-26T10:22:09;8.43;;;4.00;;
81124;SDS011;72192;52.114;5.424;2024-02-26T10:24:36;10.63;;;4.95;;
81124;SDS011;72192;52.114;5.424;2024-02-26T10:27:03;9.48;;;4.82;;
81124;SDS011;72192;52.114;5.424;2024-02-26T10:29:33;8.15;;;3.92;;
81124;SDS011;72192;52.114;5.424;2024-02-26T10:32:01;9.65;;;4.50;;
81124;SDS011;72192;52.114;5.424;2024-02-26T10:34:28;8.60;;;4.07;;
81124;SDS011;72192;52.114;5.424;2024-02-26T10:36:55;9.70;;;4.50;;
81124;SDS011;72192;52.114;5.424;2024-02-26T10:39:23;9.02;;;4.35;;
81124;SDS011;72192;52.114;5.424;2024-02-26T10:41:50;9.52;;;4.45;;
81124;SDS011;72192;52.114;5.424;2024-02-26T10:44:18;10.13;;;4.40;;
81124;SDS011;72192;52.114;5.424;2024-02-26T10:46:48;9.32;;;3.83;;
81124;SDS011;72192;52.114;5.424;2024-02-26T10:49:16;10.05;;;4.47;;
81124;SDS011;72192;52.114;5.424;2024-02-26T10:51:51;8.82;;;3.83;;
81124;SDS011;72192;52.114;5.424;2024-02-26T10:54:26;8.50;;;4.25;;
81124;SDS011;72192;52.114;5.424;2024-02-26T10:59:26;6.60;;;3.30;;
81124;SDS011;72192;52.114;5.424;2024-02-26T11:02:00;9.68;;;4.45;;
81124;SDS011;72192;52.114;5.424;2024-02-26T11:04:27;9.73;;;4.15;;
81124;SDS011;72192;52.114;5.424;2024-02-26T11:06:57;8.20;;;4.32;;
81124;SDS011;72192;52.114;5.424;2024-02-26T11:09:24;8.20;;;4.00;;
81124;SDS011;72192;52.114;5.424;2024-02-26T11:11:54;8.02;;;3.90;;
81124;SDS011;72192;52.114;5.424;2024-02-26T11:14:24;8.00;;;4.13;;
81124;SDS011;72192;52.114;5.424;2024-02-26T11:16:56;10.38;;;4.03;;
81124;SDS011;72192;52.114;5.424;2024-02-26T11:19:24;8.27;;;3.92;;
81124;SDS011;72192;52.114;5.424;2024-02-26T11:21:56;8.88;;;4.20;;
81124;SDS011;72192;52.114;5.424;2024-02-26T11:24:25;7.65;;;3.97;;
81124;SDS011;72192;52.114;5.424;2024-02-26T11:26:57;9.45;;;3.97;;
81124;SDS011;72192;52.114;5.424;2024-02-26T11:29:33;9.50;;;4.10;;
81124;SDS011;72192;52.114;5.424;2024-02-26T11:34:33;8.23;;;3.88;;
81124;SDS011;72192;52.114;5.424;2024-02-26T11:37:11;8.35;;;4.40;;
81124;SDS011;72192;52.114;5.424;2024-02-26T11:39:40;8.43;;;3.97;;
81124;SDS011;72192;52.114;5.424;2024-02-26T11:42:08;8.80;;;4.18;;
81124;SDS011;72192;52.114;5.424;2024-02-26T11:44:36;8.30;;;4.15;;
81124;SDS011;72192;52.114;5.424;2024-02-26T11:47:13;9.65;;;4.60;;
81124;SDS011;72192;52.114;5.424;2024-02-26T11:49:46;8.93;;;3.97;;
81124;SDS011;72192;52.114;5.424;2024-02-26T11:52:14;8.88;;;4.47;;
81124;SDS011;72192;52.114;5.424;2024-02-26T12:02:46;8.73;;;4.30;;
81124;SDS011;72192;52.114;5.424;2024-02-26T12:05:18;8.75;;;4.40;;
81124;SDS011;72192;52.114;5.424;2024-02-26T12:08:01;7.70;;;4.28;;
81124;SDS011;72192;52.114;5.424;2024-02-26T12:10:37;9.80;;;3.65;;
81124;SDS011;72192;52.114;5.424;2024-02-26T12:13:11;7.60;;;4.18;;
81124;SDS011;72192;52.114;5.424;2024-02-26T12:15:55;9.23;;;3.85;;
81124;SDS011;72192;52.114;5.424;2024-02-26T12:20:59;9.40;;;4.32;;
81124;SDS011;72192;52.114;5.424;2024-02-26T12:23:34;8.57;;;4.35;;
81124;SDS011;72192;52.114;5.424;2024-02-26T12:26:01;8.20;;;4.28;;
81124;SDS011;72192;52.114;5.424;2024-02-26T12:31:07;8.50;;;3.85;;
81124;SDS011;72192;52.114;5.424;2024-02-26T12:33:35;10.50;;;4.60;;
81124;SDS011;72192;52.114;5.424;2024-02-26T12:36:03;8.68;;;4.03;;
81124;SDS011;72192;52.114;5.424;2024-02-26T12:38:34;8.33;;;3.90;;
81124;SDS011;72192;52.114;5.424;2024-02-26T12:41:13;7.53;;;3.92;;
81124;SDS011;72192;52.114;5.424;2024-02-26T12:48:56;7.20;;;3.97;;
81124;SDS011;72192;52.114;5.424;2024-02-26T12:51:27;7.75;;;4.10;;
81124;SDS011;72192;52.114;5.424;2024-02-26T12:53:55;7.80;;;3.80;;
81124;SDS011;72192;52.114;5.424;2024-02-26T12:56:24;8.50;;;4.15;;
81124;SDS011;72192;52.114;5.424;2024-02-26T12:58:53;9.68;;;4.10;;
81124;SDS011;72192;52.114;5.424;2024-02-26T13:01:23;9.43;;;3.80;;
81124;SDS011;72192;52.114;5.424;2024-02-26T13:12:04;7.18;;;3.85;;
81124;SDS011;72192;52.114;5.424;2024-02-26T13:14:32;9.32;;;4.50;;
81124;SDS011;72192;52.114;5.424;2024-02-26T13:17:01;7.78;;;3.90;;
81124;SDS011;72192;52.114;5.424;2024-02-26T13:19:29;7.13;;;3.58;;
81124;SDS011;72192;52.114;5.424;2024-02-26T13:22:04;9.10;;;4.40;;
81124;SDS011;72192;52.114;5.424;2024-02-26T13:24:34;8.82;;;3.95;;
81124;SDS011;72192;52.114;5.424;2024-02-26T13:27:03;8.45;;;4.22;;
81124;SDS011;72192;52.114;5.424;2024-02-26T13:29:33;7.95;;;4.00;;
81124;SDS011;72192;52.114;5.424;2024-02-26T13:32:00;7.82;;;3.67;;
81124;SDS011;72192;52.114;5.424;2024-02-26T13:34:28;7.15;;;4.07;;
81124;SDS011;72192;52.114;5.424;2024-02-26T13:36:57;7.57;;;3.47;;
81124;SDS011;72192;52.114;5.424;2024-02-26T13:39:24;7.15;;;3.70;;
81124;SDS011;72192;52.114;5.424;2024-02-26T13:41:55;8.18;;;3.70;;
81124;SDS011;72192;52.114;5.424;2024-02-26T13:44:23;9.18;;;4.55;;
81124;SDS011;72192;52.114;5.424;2024-02-26T13:46:50;8.45;;;3.58;;
81124;SDS011;72192;52.114;5.424;2024-02-26T13:49:17;7.35;;;3.42;;
81124;SDS011;72192;52.114;5.424;2024-02-26T13:51:49;7.18;;;3.67;;
81124;SDS011;72192;52.114;5.424;2024-02-26T13:54:16;8.00;;;3.63;;
81124;SDS011;72192;52.114;5.424;2024-02-26T13:56:44;7.18;;;3.90;;
81124;SDS011;72192;52.114;5.424;2024-02-26T13:59:14;10.25;;;4.00;;
81124;SDS011;72192;52.114;5.424;2024-02-26T14:01:41;8.48;;;3.65;;
81124;SDS011;72192;52.114;5.424;2024-02-26T14:06:36;8.70;;;4.10;;
81124;SDS011;72192;52.114;5.424;2024-02-26T14:11:31;6.90;;;3.30;;
81124;SDS011;72192;52.114;5.424;2024-02-26T14:14:00;8.07;;;3.20;;
81124;SDS011;72192;52.114;5.424;2024-02-26T14:16:27;8.68;;;3.70;;
81124;SDS011;72192;52.114;5.424;2024-02-26T14:21:25;7.00;;;3.40;;
81124;SDS011;72192;52.114;5.424;2024-02-26T14:23:53;7.95;;;3.47;;
81124;SDS011;72192;52.114;5.424;2024-02-26T14:26:22;8.90;;;4.13;;
81124;SDS011;72192;52.114;5.424;2024-02-26T14:28:50;7.53;;;3.65;;
81124;SDS011;72192;52.114;5.424;2024-02-26T14:31:19;6.38;;;3.17;;
81124;SDS011;72192;52.114;5.424;2024-02-26T14:33:48;6.57;;;3.27;;
81124;SDS011;72192;52.114;5.424;2024-02-26T14:36:21;6.03;;;3.00;;
81124;SDS011;72192;52.114;5.424;2024-02-26T14:38:49;5.60;;;3.00;;
81124;SDS011;72192;52.114;5.424;2024-02-26T14:41:18;7.30;;;3.13;;
81124;SDS011;72192;52.114;5.424;2024-02-26T14:48:48;9.80;;;3.45;;
81124;SDS011;72192;52.114;5.424;2024-02-26T14:51:17;5.63;;;3.20;;
81124;SDS011;72192;52.114;5.424;2024-02-26T14:53:46;7.30;;;3.20;;
81124;SDS011;72192;52.114;5.424;2024-02-26T14:56:17;6.85;;;3.15;;
81124;SDS011;72192;52.114;5.424;2024-02-26T14:58:46;7.55;;;3.60;;
81124;SDS011;72192;52.114;5.424;2024-02-26T15:01:13;5.53;;;3.03;;
81124;SDS011;72192;52.114;5.424;2024-02-26T15:06:10;6.43;;;3.00;;
81124;SDS011;72192;52.114;5.424;2024-02-26T15:08:39;7.35;;;3.58;;
81124;SDS011;72192;52.114;5.424;2024-02-26T15:16:18;8.07;;;2.38;;
81124;SDS011;72192;52.114;5.424;2024-02-26T15:18:48;5.43;;;2.80;;
81124;SDS011;72192;52.114;5.424;2024-02-26T15:21:19;6.18;;;2.95;;
81124;SDS011;72192;52.114;5.424;2024-02-26T15:23:46;8.18;;;2.83;;
81124;SDS011;72192;52.114;5.424;2024-02-26T15:26:30;7.43;;;2.67;;
81124;SDS011;72192;52.114;5.424;2024-02-26T15:31:28;5.30;;;2.40;;
81124;SDS011;72192;52.114;5.424;2024-02-26T15:33:57;7.20;;;3.00;;
81124;SDS011;72192;52.114;5.424;2024-02-26T15:38:53;5.63;;;2.83;;
81124;SDS011;72192;52.114;5.424;2024-02-26T15:41:20;5.20;;;2.60;;
81124;SDS011;72192;52.114;5.424;2024-02-26T15:43:50;5.38;;;2.60;;
81124;SDS011;72192;52.114;5.424;2024-02-26T15:46:19;5.05;;;2.70;;
81124;SDS011;72192;52.114;5.424;2024-02-26T15:48:46;5.97;;;2.70;;
81124;SDS011;72192;52.114;5.424;2024-02-26T15:51:23;8.05;;;2.53;;
81124;SDS011;72192;52.114;5.424;2024-02-26T15:53:53;6.25;;;3.00;;
81124;SDS011;72192;52.114;5.424;2024-02-26T15:56:20;6.45;;;3.05;;
81124;SDS011;72192;52.114;5.424;2024-02-26T15:58:51;6.57;;;3.05;;
81124;SDS011;72192;52.114;5.424;2024-02-26T16:01:19;7.13;;;2.70;;
81124;SDS011;72192;52.114;5.424;2024-02-26T16:03:51;7.25;;;3.45;;
81124;SDS011;72192;52.114;5.424;2024-02-26T16:06:28;6.90;;;3.17;;
81124;SDS011;72192;52.114;5.424;2024-02-26T16:09:00;6.45;;;3.20;;
81124;SDS011;72192;52.114;5.424;2024-02-26T16:14:15;6.53;;;3.13;;
81124;SDS011;72192;52.114;5.424;2024-02-26T16:17:11;7.80;;;3.50;;
81124;SDS011;72192;52.114;5.424;2024-02-26T16:19:46;6.20;;;3.60;;
81124;SDS011;72192;52.114;5.424;2024-02-26T16:24:52;8.32;;;4.05;;
81124;SDS011;72192;52.114;5.424;2024-02-26T16:27:19;7.75;;;3.80;;
81124;SDS011;72192;52.114;5.424;2024-02-26T16:32:17;8.55;;;3.70;;
81124;SDS011;72192;52.114;5.424;2024-02-26T16:37:12;6.45;;;3.55;;